Time;durP1;ratioP1;P1;durP2;ratioP2;P2;SDS_P1;SDS_P2;PMS_P1;PMS_P2;Temp;Humidity;BMP_temperature;BMP_pressure;BME280_temperature;BME280_humidity;BME280_pressure;Samples;Min_cycle;Max_cycle;Signal;HPM_P1;HPM_P2
2021/05/13 00:01:56;;;;;;;484.23;444.95;;;;;;;12.94;70.27;97472.59;5083046;28;20051;-62
2021/05/13 00:04:21;;;;;;;466.67;426.90;;;;;;;12.98;69.92;97466.41;5095714;28;20407;-62
2021/05/13 00:06:47;;;;;;;468.83;430.08;;;;;;;13.05;68.43;97457.50;5085972;28;20032;-62
2021/05/13 00:09:12;;;;;;;474.98;436.95;;;;;;;13.08;68.69;97456.50;5083822;28;20297;-62
2021/05/13 00:11:42;;;;;;;482.23;443.92;;;;;;;13.12;68.25;97458.03;5083947;28;20082;-62
2021/05/13 00:14:08;;;;;;;496.20;456.35;;;;;;;13.14;68.94;97454.50;5086610;28;20045;-62
2021/05/13 00:16:35;;;;;;;510.48;470.73;;;;;;;13.18;68.62;97455.19;5087706;28;20043;-62
2021/05/13 00:19:05;;;;;;;478.45;440.08;;;;;;;13.11;68.69;97448.69;5086735;28;20042;-62
2021/05/13 00:21:31;;;;;;;488.58;448.63;;;;;;;13.09;68.44;97447.88;5080141;28;20032;-62
2021/05/13 00:23:56;;;;;;;485.40;445.92;;;;;;;13.10;68.18;97459.84;5085009;28;20047;-61
2021/05/13 00:26:41;;;;;;;478.42;438.77;;;;;;;13.13;67.67;97447.69;5081445;28;20434;-61
2021/05/13 00:29:09;;;;;;;492.05;449.95;;;;;;;13.19;67.64;97451.72;5081091;28;20060;-62
2021/05/13 00:31:35;;;;;;;501.17;458.17;;;;;;;13.08;67.66;97433.34;5081114;28;20288;-62
2021/05/13 00:34:01;;;;;;;511.80;467.00;;;;;;;13.07;67.83;97442.00;5087092;28;20028;-62
2021/05/13 00:36:34;;;;;;;500.70;458.08;;;;;;;13.11;67.75;97433.25;5085240;28;20078;-62
2021/05/13 00:38:59;;;;;;;473.92;432.02;;;;;;;13.05;67.75;97438.63;5081490;28;20124;-62
2021/05/13 00:41:26;;;;;;;475.40;433.70;;;;;;;13.05;67.49;97426.63;5082392;28;20111;-62
2021/05/13 00:43:51;;;;;;;475.73;432.95;;;;;;;13.00;67.68;97410.56;5081933;28;20114;-61
2021/05/13 00:46:17;;;;;;;486.98;442.80;;;;;;;13.09;67.12;97428.13;5082166;28;20397;-61
2021/05/13 00:48:44;;;;;;;496.67;451.98;;;;;;;13.01;67.38;97426.84;5082541;28;20202;-62
2021/05/13 00:51:10;;;;;;;489.63;445.63;;;;;;;13.03;67.56;97422.44;5080975;28;20032;-62
2021/05/13 00:53:35;;;;;;;493.27;449.27;;;;;;;13.01;67.71;97416.53;5082339;28;20039;-62
2021/05/13 00:56:01;;;;;;;492.50;447.47;;;;;;;13.01;66.99;97432.81;5079733;28;20285;-62
2021/05/13 00:58:30;;;;;;;471.85;429.13;;;;;;;13.04;67.62;97418.97;5081678;28;20040;-61
2021/05/13 01:03:21;;;;;;;475.60;433.67;;;;;;;13.01;67.70;97413.97;5083111;28;20309;-64
2021/05/13 01:05:47;;;;;;;476.47;433.80;;;;;;;12.91;68.19;97400.69;5081514;28;20021;-64
2021/05/13 01:08:12;;;;;;;480.63;438.40;;;;;;;12.95;68.28;97404.78;5081519;28;20257;-64
2021/05/13 01:10:39;;;;;;;494.83;452.33;;;;;;;12.92;68.24;97415.25;5083329;28;20308;-64
2021/05/13 01:13:08;;;;;;;480.13;437.87;;;;;;;12.86;68.63;97409.56;5080481;28;20025;-63
2021/05/13 01:15:43;;;;;;;488.23;445.90;;;;;;;12.80;68.67;97388.38;5081948;28;20050;-63
2021/05/13 01:18:22;;;;;;;467.02;424.55;;;;;;;12.89;68.34;97379.38;5081604;28;20034;-63
2021/05/13 01:20:49;;;;;;;462.38;420.88;;;;;;;12.84;68.98;97383.91;5085437;28;20032;-64
2021/05/13 01:23:16;;;;;;;463.63;422.52;;;;;;;12.79;68.84;97378.97;5080585;28;20105;-63
2021/05/13 01:25:51;;;;;;;487.03;441.27;;;;;;;12.79;69.01;97384.13;5081501;28;20017;-64
2021/05/13 01:28:17;;;;;;;471.70;427.40;;;;;;;12.76;69.05;97379.13;5089553;28;20038;-63
2021/05/13 01:30:45;;;;;;;476.90;432.27;;;;;;;12.79;69.17;97381.56;5080412;28;20117;-63
2021/05/13 01:33:12;;;;;;;475.53;431.53;;;;;;;12.78;68.76;97376.47;5083366;28;20277;-64
2021/05/13 01:35:39;;;;;;;474.00;429.57;;;;;;;12.79;68.52;97360.97;5085562;28;20035;-64
2021/05/13 01:38:15;;;;;;;480.00;435.57;;;;;;;12.84;68.55;97368.47;5079575;28;20392;-64
2021/05/13 01:40:49;;;;;;;480.40;438.27;;;;;;;12.85;68.10;97369.31;5082521;28;20329;-63
2021/05/13 01:43:14;;;;;;;473.02;432.98;;;;;;;12.87;67.75;97359.75;5082987;28;20021;-63
2021/05/13 01:45:41;;;;;;;455.58;415.80;;;;;;;12.92;67.87;97371.50;5083365;28;20415;-64
2021/05/13 01:48:07;;;;;;;469.33;428.85;;;;;;;12.89;67.69;97353.66;5085624;28;20047;-63
2021/05/13 01:50:34;;;;;;;480.13;439.10;;;;;;;12.94;67.89;97351.69;5081857;28;20032;-63
2021/05/13 01:53:04;;;;;;;474.15;432.98;;;;;;;12.91;67.49;97351.00;5081464;28;20025;-63
2021/05/13 01:55:30;;;;;;;468.07;427.63;;;;;;;12.86;67.91;97358.13;5083065;28;20429;-64
2021/05/13 01:57:55;;;;;;;470.83;430.57;;;;;;;12.78;68.20;97350.75;5082211;28;20024;-63
2021/05/13 02:00:22;;;;;;;463.93;424.67;;;;;;;12.86;67.99;97342.69;5084598;28;20197;-64
2021/05/13 02:02:49;;;;;;;471.92;432.38;;;;;;;12.85;67.92;97339.28;5078581;28;20039;-64
2021/05/13 02:05:16;;;;;;;471.07;430.70;;;;;;;12.85;67.53;97329.00;5082155;28;20070;-64
2021/05/13 02:07:41;;;;;;;467.27;426.77;;;;;;;12.86;67.84;97340.13;5082673;28;20427;-64
2021/05/13 02:10:10;;;;;;;470.47;429.83;;;;;;;12.89;67.41;97334.81;5084642;28;20177;-64
2021/05/13 02:12:35;;;;;;;473.40;432.35;;;;;;;12.88;67.41;97322.84;5085932;28;20024;-64
2021/05/13 02:15:01;;;;;;;466.10;424.13;;;;;;;12.90;67.03;97323.63;5084407;28;20032;-64
2021/05/13 02:17:26;;;;;;;484.00;440.35;;;;;;;12.92;66.54;97314.91;5086554;28;20028;-64
2021/05/13 02:19:52;;;;;;;476.37;433.27;;;;;;;12.91;66.62;97310.66;5084035;28;20028;-64
2021/05/13 02:22:17;;;;;;;472.77;429.40;;;;;;;12.87;67.22;97314.31;5086339;28;20289;-64
2021/05/13 02:24:43;;;;;;;481.80;438.17;;;;;;;12.90;67.03;97305.63;5087114;28;20024;-64
2021/05/13 02:27:08;;;;;;;465.70;423.30;;;;;;;12.89;67.04;97306.53;5086374;28;20032;-65
2021/05/13 02:29:33;;;;;;;478.03;435.03;;;;;;;12.88;66.94;97318.53;5085089;28;20029;-64
2021/05/13 02:31:59;;;;;;;482.23;438.90;;;;;;;12.90;66.70;97314.13;5084688;28;20158;-63
2021/05/13 02:34:24;;;;;;;481.67;437.87;;;;;;;12.95;66.85;97298.47;5085050;28;20027;-63
2021/05/13 02:36:50;;;;;;;464.87;421.33;;;;;;;12.88;66.72;97305.69;5084431;28;20106;-63
2021/05/13 02:39:15;;;;;;;464.93;420.87;;;;;;;12.88;66.39;97290.25;5093525;28;20034;-63
2021/05/13 02:41:43;;;;;;;461.30;417.90;;;;;;;12.87;66.58;97301.44;5088338;28;20174;-63
2021/05/13 02:44:09;;;;;;;483.00;441.00;;;;;;;13.00;65.87;97293.94;5087260;28;20304;-63
2021/05/13 02:46:35;;;;;;;476.25;435.33;;;;;;;13.02;66.34;97281.84;5085019;28;20032;-63
2021/05/13 02:49:00;;;;;;;484.10;442.85;;;;;;;12.98;65.92;97288.91;5086916;28;20067;-63
2021/05/13 02:51:26;;;;;;;488.73;445.80;;;;;;;13.01;65.35;97283.59;5085379;28;20039;-63
2021/05/13 02:53:51;;;;;;;487.87;443.27;;;;;;;13.06;65.17;97288.50;5081229;28;20370;-64
2021/05/13 02:56:17;;;;;;;485.85;441.58;;;;;;;13.00;65.57;97286.22;5086237;28;20388;-61
2021/05/13 02:58:43;;;;;;;497.02;452.92;;;;;;;12.96;65.10;97280.41;5088069;28;20115;-61
2021/05/13 03:01:23;;;;;;;484.03;440.23;;;;;;;12.96;65.41;97272.69;5086314;28;20036;-61
2021/05/13 03:03:49;;;;;;;479.73;435.50;;;;;;;12.98;65.17;97275.19;5086665;28;20162;-61
2021/05/13 03:06:15;;;;;;;486.70;442.77;;;;;;;13.06;65.13;97268.75;5085048;28;20139;-61
2021/05/13 03:08:40;;;;;;;479.83;435.80;;;;;;;13.08;64.93;97269.50;5087850;28;20070;-61
2021/05/13 03:11:06;;;;;;;484.58;441.00;;;;;;;13.02;65.19;97266.41;5087479;28;20017;-61
2021/05/13 03:13:31;;;;;;;476.88;433.67;;;;;;;13.05;64.52;97267.09;5085846;28;20111;-61
2021/05/13 03:15:57;;;;;;;493.88;450.23;;;;;;;13.05;64.83;97259.38;5083809;28;20309;-61
2021/05/13 03:18:25;;;;;;;493.00;449.07;;;;;;;13.07;65.15;97272.16;5084110;28;20841;-61
2021/05/13 03:21:03;;;;;;;480.73;438.50;;;;;;;13.05;64.70;97255.97;5082582;28;20400;-62
2021/05/13 03:23:55;;;;;;;480.20;437.08;;;;;;;13.04;65.06;97255.13;5081803;28;20313;-61
2021/05/13 03:26:15;;;;;;;479.30;435.27;;;;;;;13.05;64.61;97255.97;5081924;28;20063;-61
2021/05/13 03:28:40;;;;;;;481.63;438.00;;;;;;;13.04;64.23;97249.16;5083491;28;20067;-61
2021/05/13 03:31:06;;;;;;;481.92;438.02;;;;;;;13.03;64.53;97268.06;5082817;28;20384;-61
2021/05/13 03:33:31;;;;;;;475.33;432.27;;;;;;;13.08;64.11;97246.34;5082450;28;20036;-61
2021/05/13 03:35:56;;;;;;;466.80;423.30;;;;;;;13.06;64.21;97257.63;5084989;28;20124;-61
2021/05/13 03:38:22;;;;;;;479.95;436.33;;;;;;;13.11;64.26;97245.41;5083794;28;20119;-61
2021/05/13 03:40:48;;;;;;;463.05;419.98;;;;;;;13.09;64.57;97253.16;5085940;28;20110;-61
2021/05/13 03:43:14;;;;;;;489.67;446.20;;;;;;;13.07;64.14;97249.81;5083592;28;20601;-61
2021/05/13 03:45:39;;;;;;;475.37;431.90;;;;;;;13.09;64.29;97235.16;5082696;28;20024;-61
2021/05/13 03:48:05;;;;;;;473.13;429.93;;;;;;;13.12;64.58;97241.91;5085299;28;20035;-61
2021/05/13 03:50:33;;;;;;;477.52;434.15;;;;;;;13.09;64.23;97235.16;5084952;28;20040;-61
2021/05/13 03:52:58;;;;;;;495.17;451.48;;;;;;;13.12;64.04;97239.31;5080537;28;20392;-61
2021/05/13 03:55:24;;;;;;;496.57;452.00;;;;;;;13.08;64.28;97245.50;5080036;28;20028;-61
2021/05/13 03:57:50;;;;;;;476.15;433.02;;;;;;;13.04;64.40;97237.13;5081107;28;20028;-61
2021/05/13 04:00:18;;;;;;;483.90;440.35;;;;;;;13.04;64.40;97223.41;5081794;28;20035;-61
2021/05/13 04:02:44;;;;;;;478.98;435.88;;;;;;;13.04;64.15;97228.56;5082619;28;20360;-61
2021/05/13 04:05:11;;;;;;;489.43;445.23;;;;;;;13.06;64.36;97252.50;5082429;28;20118;-61
2021/05/13 04:07:38;;;;;;;493.07;449.37;;;;;;;13.10;64.40;97239.41;5083199;28;20062;-61
2021/05/13 04:10:06;;;;;;;486.93;442.87;;;;;;;13.12;64.46;97237.59;5058454;28;722239;-61
2021/05/13 04:12:31;;;;;;;493.50;448.98;;;;;;;13.04;64.67;97244.84;5081258;28;20037;-61
2021/05/13 04:14:58;;;;;;;483.55;439.23;;;;;;;13.06;64.27;97240.47;5085383;28;20035;-62
2021/05/13 04:17:24;;;;;;;483.58;439.48;;;;;;;13.03;64.57;97227.72;5093300;28;20021;-61
2021/05/13 04:19:49;;;;;;;489.33;444.97;;;;;;;13.01;64.82;97236.44;5083081;28;20036;-62
2021/05/13 04:22:15;;;;;;;475.80;431.50;;;;;;;13.01;64.51;97250.16;5084115;28;20058;-62
2021/05/13 04:24:42;;;;;;;483.40;438.63;;;;;;;13.01;64.57;97234.72;5083423;28;20102;-62
2021/05/13 04:27:08;;;;;;;474.83;430.65;;;;;;;13.03;64.65;97232.88;5082567;28;20034;-62
2021/05/13 04:29:33;;;;;;;490.27;445.90;;;;;;;13.01;64.56;97233.88;5085881;28;20040;-62
2021/05/13 04:31:58;;;;;;;480.23;435.93;;;;;;;13.00;64.20;97229.63;5084897;28;20035;-62
2021/05/13 04:34:24;;;;;;;512.13;467.70;;;;;;;13.00;64.82;97237.34;5084638;28;20101;-60
2021/05/13 04:36:50;;;;;;;474.15;431.55;;;;;;;13.03;64.44;97242.31;5081281;28;20063;-62
2021/05/13 04:39:15;;;;;;;463.15;421.10;;;;;;;13.05;64.68;97227.66;5084315;28;20031;-62
2021/05/13 04:41:41;;;;;;;480.85;438.20;;;;;;;13.11;64.42;97228.19;5080883;28;20078;-60
2021/05/13 04:44:07;;;;;;;482.48;440.38;;;;;;;13.15;64.04;97236.63;5084159;28;20032;-60
2021/05/13 04:46:34;;;;;;;467.80;426.37;;;;;;;13.03;64.29;97242.31;5086285;28;20321;-61
2021/05/13 04:51:35;;;;;;;491.45;449.25;;;;;;;13.10;64.00;97229.13;5084434;28;20341;-61
2021/05/13 04:54:00;;;;;;;;;;;;;;;13.13;64.05;97234.09;5084172;28;20322;-61
2021/05/13 04:56:27;;;;;;;482.23;439.85;;;;;;;13.18;63.92;97226.16;5081521;28;20292;-62
2021/05/13 04:58:52;;;;;;;463.77;422.15;;;;;;;13.13;64.31;97233.28;5082322;28;20408;-62
2021/05/13 05:01:18;;;;;;;484.48;443.08;;;;;;;13.15;63.82;97221.16;5082718;28;20084;-62
2021/05/13 05:03:45;;;;;;;493.10;450.97;;;;;;;13.19;64.15;97213.22;5084036;28;20036;-62
2021/05/13 05:06:10;;;;;;;478.88;436.88;;;;;;;13.14;63.85;97219.50;5085280;28;20297;-61
2021/05/13 05:08:37;;;;;;;487.80;445.47;;;;;;;13.10;63.63;97210.25;5081909;28;20036;-61
2021/05/13 05:11:02;;;;;;;483.63;441.40;;;;;;;13.10;63.31;97217.97;5081907;28;20023;-62
2021/05/13 05:13:29;;;;;;;489.27;447.30;;;;;;;13.15;63.81;97211.69;5083048;28;20038;-61
2021/05/13 05:15:55;;;;;;;475.67;433.85;;;;;;;13.16;64.08;97222.81;5084462;28;20032;-61
2021/05/13 05:18:21;;;;;;;482.90;441.65;;;;;;;13.23;64.24;97208.72;5083408;28;20028;-61
2021/05/13 05:20:48;;;;;;;489.65;447.23;;;;;;;13.10;63.89;97216.25;5082125;28;20415;-60
2021/05/13 05:23:14;;;;;;;482.55;440.23;;;;;;;13.11;64.76;97211.94;5080388;28;20085;-60
2021/05/13 05:25:40;;;;;;;483.77;440.67;;;;;;;13.06;64.76;97217.28;5080989;28;20012;-62
2021/05/13 05:28:06;;;;;;;478.83;436.35;;;;;;;13.07;64.60;97211.22;5086539;28;20107;-61
2021/05/13 05:30:33;;;;;;;491.05;448.15;;;;;;;13.00;65.08;97220.16;5082479;28;20039;-59
2021/05/13 05:33:03;;;;;;;482.60;440.83;;;;;;;13.04;65.54;97213.13;5093081;28;20285;-61
2021/05/13 05:35:29;;;;;;;470.73;428.77;;;;;;;12.97;65.29;97222.91;5082499;28;20071;-60
2021/05/13 05:37:55;;;;;;;457.58;416.35;;;;;;;12.92;65.83;97224.03;5081268;28;20052;-60
2021/05/13 05:40:22;;;;;;;480.50;439.27;;;;;;;12.97;66.21;97228.06;5085518;28;20044;-60
2021/05/13 05:42:48;;;;;;;479.33;436.50;;;;;;;13.03;65.93;97235.44;5084118;28;20120;-62
2021/05/13 05:45:15;;;;;;;457.30;415.17;;;;;;;12.88;66.26;97225.13;5084412;28;20306;-60
2021/05/13 05:47:41;;;;;;;469.77;427.90;;;;;;;12.78;67.11;97233.28;5083897;28;20027;-60
2021/05/13 05:50:08;;;;;;;479.38;437.58;;;;;;;12.78;67.18;97241.00;5089352;28;20032;-60
2021/05/13 05:52:34;;;;;;;492.02;448.70;;;;;;;12.70;67.81;97245.69;5083227;28;20055;-60
2021/05/13 05:54:59;;;;;;;483.27;440.80;;;;;;;12.64;68.16;97237.47;5079958;28;20405;-61
2021/05/13 05:57:24;;;;;;;471.70;429.43;;;;;;;12.69;68.69;97241.47;5078540;28;20035;-60
2021/05/13 05:59:50;;;;;;;469.85;427.80;;;;;;;12.62;68.81;97239.28;5080945;28;20042;-59
2021/05/13 06:02:15;;;;;;;468.02;426.45;;;;;;;12.66;69.02;97243.34;5080864;28;20035;-61
2021/05/13 06:04:41;;;;;;;464.97;422.37;;;;;;;12.54;69.05;97249.09;5081199;28;20039;-60
2021/05/13 06:07:07;;;;;;;475.03;432.37;;;;;;;12.45;70.27;97257.25;5081349;28;20116;-60
2021/05/13 06:09:32;;;;;;;467.13;424.33;;;;;;;12.38;71.01;97251.59;5078381;28;20448;-60
2021/05/13 06:11:58;;;;;;;462.23;419.23;;;;;;;12.25;71.52;97251.34;5098359;28;20024;-60
2021/05/13 06:14:24;;;;;;;457.43;415.47;;;;;;;12.24;72.23;97248.84;5083584;28;20033;-62
2021/05/13 06:16:49;;;;;;;465.00;422.83;;;;;;;12.23;72.85;97255.72;5083476;28;20030;-59
2021/05/13 06:19:17;;;;;;;442.57;401.07;;;;;;;12.11;72.84;97256.31;5079344;28;20046;-61
2021/05/13 06:21:43;;;;;;;457.20;414.50;;;;;;;12.08;74.28;97256.44;5083618;28;20294;-61
2021/05/13 06:24:11;;;;;;;465.03;422.30;;;;;;;12.10;73.70;97257.19;5081299;28;20020;-61
2021/05/13 06:26:37;;;;;;;461.37;419.30;;;;;;;12.05;73.93;97256.56;5081542;28;20028;-61
2021/05/13 06:29:07;;;;;;;448.57;407.40;;;;;;;12.01;74.40;97270.47;5080687;28;20097;-61
2021/05/13 06:31:33;;;;;;;440.83;399.63;;;;;;;12.00;75.26;97260.28;5081251;28;20024;-59
2021/05/13 06:33:59;;;;;;;460.67;419.03;;;;;;;11.96;74.74;97254.47;5086710;28;20067;-59
2021/05/13 06:36:25;;;;;;;438.60;397.83;;;;;;;11.93;74.42;97254.56;5092628;28;20404;-61
2021/05/13 06:38:50;;;;;;;452.17;411.57;;;;;;;11.94;74.54;97245.16;5079533;28;20107;-60
2021/05/13 06:41:16;;;;;;;444.23;403.87;;;;;;;11.89;75.79;97246.19;5083692;28;20047;-60
2021/05/13 06:43:42;;;;;;;426.50;387.13;;;;;;;11.93;75.09;97253.75;5080999;28;20112;-61
2021/05/13 06:46:09;;;;;;;436.57;397.23;;;;;;;11.93;74.56;97246.88;5080898;28;20020;-60
2021/05/13 06:48:34;;;;;;;438.57;397.87;;;;;;;11.95;75.14;97260.50;5081688;28;20281;-60
2021/05/13 06:51:01;;;;;;;442.20;402.40;;;;;;;11.93;75.47;97253.75;5082119;28;20110;-60
2021/05/13 06:53:26;;;;;;;443.00;402.60;;;;;;;11.91;75.02;97251.28;5081960;28;20039;-60
2021/05/13 06:55:53;;;;;;;433.03;394.70;;;;;;;11.93;75.83;97257.16;5079339;28;20280;-60
2021/05/13 06:58:22;;;;;;;432.90;393.97;;;;;;;12.00;75.41;97247.44;5083979;28;20074;-60
2021/05/13 07:00:48;;;;;;;446.30;406.30;;;;;;;11.97;75.25;97252.69;5081973;28;20038;-60
2021/05/13 07:03:14;;;;;;;443.37;404.43;;;;;;;12.05;75.25;97250.63;5086865;28;20036;-60
2021/05/13 07:05:40;;;;;;;475.53;435.00;;;;;;;12.06;75.19;97240.25;5083167;28;20111;-60
2021/05/13 07:08:06;;;;;;;482.10;441.37;;;;;;;12.06;74.74;97257.41;5086913;28;20028;-60
2021/05/13 07:10:32;;;;;;;442.70;402.87;;;;;;;12.16;74.11;97243.25;5083912;28;20025;-60
2021/05/13 07:12:58;;;;;;;439.90;400.03;;;;;;;12.20;73.58;97258.44;5084122;28;20036;-60
2021/05/13 07:15:24;;;;;;;466.70;425.90;;;;;;;12.31;73.35;97248.47;5084741;28;20404;-60
2021/05/13 07:17:49;;;;;;;429.20;390.03;;;;;;;12.25;73.33;97243.63;5085037;28;20029;-60
2021/05/13 07:20:15;;;;;;;442.00;402.87;;;;;;;12.29;73.86;97255.44;5092555;28;20194;-60
2021/05/13 07:22:40;;;;;;;456.27;415.60;;;;;;;12.31;74.04;97235.63;5096215;28;20119;-60
2021/05/13 07:25:06;;;;;;;445.53;404.63;;;;;;;12.31;73.15;97245.91;5084711;28;20024;-60
2021/05/13 07:27:32;;;;;;;443.93;403.90;;;;;;;12.40;72.59;97242.06;5085300;28;20051;-60
2021/05/13 07:29:57;;;;;;;463.83;423.27;;;;;;;12.42;72.36;97222.25;5083498;28;20073;-60
2021/05/13 07:32:22;;;;;;;432.00;392.13;;;;;;;12.44;71.45;97225.56;5087098;28;20378;-60
2021/05/13 07:34:48;;;;;;;453.77;414.23;;;;;;;12.53;70.74;97222.56;5084190;28;20037;-61
2021/05/13 07:37:14;;;;;;;449.17;408.43;;;;;;;12.66;70.76;97222.78;5087787;28;20411;-61
2021/05/13 07:39:40;;;;;;;459.87;417.70;;;;;;;12.69;70.83;97233.75;5082790;28;20335;-61
2021/05/13 07:42:05;;;;;;;465.70;422.43;;;;;;;12.76;69.98;97222.25;5085136;28;20370;-61
2021/05/13 07:44:31;;;;;;;551.03;502.57;;;;;;;12.82;69.51;97229.66;5086993;28;20025;-60
2021/05/13 07:46:58;;;;;;;488.13;442.57;;;;;;;12.91;69.00;97223.22;5102684;28;20029;-61
2021/05/13 07:49:25;;;;;;;483.30;438.40;;;;;;;12.90;68.97;97215.59;5084310;28;20039;-60
2021/05/13 07:51:51;;;;;;;491.17;444.67;;;;;;;13.00;68.77;97229.63;5083275;28;20031;-61
2021/05/13 07:54:17;;;;;;;473.50;428.10;;;;;;;13.19;68.50;97215.78;5082339;28;20028;-60
2021/05/13 07:56:43;;;;;;;496.43;450.43;;;;;;;13.36;67.92;97214.91;5083056;28;20024;-60
2021/05/13 07:59:08;;;;;;;501.27;455.53;;;;;;;13.33;67.27;97211.63;5084356;28;20386;-61
2021/05/13 08:01:34;;;;;;;495.07;450.00;;;;;;;13.38;67.01;97218.22;5084487;28;20054;-60
2021/05/13 08:03:59;;;;;;;492.00;447.15;;;;;;;13.32;67.00;97218.56;5085358;28;20073;-60
2021/05/13 08:06:25;;;;;;;495.30;450.10;;;;;;;13.36;66.45;97217.47;5093025;28;20042;-60
2021/05/13 08:08:50;;;;;;;498.90;454.15;;;;;;;13.42;66.26;97209.41;5084163;28;20360;-61
2021/05/13 08:11:16;;;;;;;513.90;468.42;;;;;;;13.35;66.48;97210.66;5082167;28;20287;-61
2021/05/13 08:13:41;;;;;;;489.60;445.85;;;;;;;13.53;65.58;97208.84;5085942;28;20106;-60
2021/05/13 08:16:07;;;;;;;496.52;452.13;;;;;;;13.52;66.61;97215.75;5082259;28;20027;-61
2021/05/13 08:18:32;;;;;;;498.05;454.38;;;;;;;13.60;66.42;97205.03;5083372;28;20042;-60
2021/05/13 08:20:59;;;;;;;504.50;460.67;;;;;;;13.57;65.68;97206.03;5085931;28;20083;-61
2021/05/13 08:23:25;;;;;;;490.95;448.48;;;;;;;13.54;65.33;97202.78;5089592;28;20115;-62
2021/05/13 08:25:51;;;;;;;490.25;448.75;;;;;;;13.68;65.45;97195.97;5082104;28;20126;-62
2021/05/13 08:28:16;;;;;;;500.05;458.38;;;;;;;13.56;65.86;97198.38;5084982;28;20556;-62
2021/05/13 08:30:41;;;;;;;501.48;459.92;;;;;;;13.77;66.05;97197.22;5082779;28;20070;-62
2021/05/13 08:33:07;;;;;;;503.33;462.52;;;;;;;13.85;65.66;97199.38;5085099;28;20031;-62
2021/05/13 08:35:32;;;;;;;515.25;474.02;;;;;;;13.82;66.15;97209.84;5081951;28;20024;-62
2021/05/13 08:37:58;;;;;;;510.23;469.02;;;;;;;13.76;65.65;97218.75;5085743;28;20421;-62
2021/05/13 08:40:23;;;;;;;518.25;476.88;;;;;;;13.71;65.21;97202.69;5084461;28;20044;-61
2021/05/13 08:42:49;;;;;;;514.33;474.00;;;;;;;13.79;64.65;97208.25;5081110;28;20035;-61
2021/05/13 08:45:14;;;;;;;514.17;474.42;;;;;;;14.01;63.71;97195.88;5082529;28;20063;-61
2021/05/13 08:47:45;;;;;;;537.47;495.83;;;;;;;14.12;63.83;97200.44;5083870;28;20187;-61
2021/05/13 08:50:15;;;;;;;526.85;486.02;;;;;;;13.98;63.15;97218.41;5079952;28;20370;-61
2021/05/13 08:52:41;;;;;;;522.72;481.95;;;;;;;13.90;63.09;97194.81;5080453;28;20035;-61
2021/05/13 08:55:07;;;;;;;532.13;491.65;;;;;;;14.01;64.29;97207.91;5084843;28;20036;-62
2021/05/13 08:57:33;;;;;;;528.28;488.77;;;;;;;13.92;63.38;97208.44;5084846;28;20119;-61
2021/05/13 08:59:59;;;;;;;515.05;477.13;;;;;;;13.94;63.74;97202.28;5082226;28;20162;-61
2021/05/13 09:02:30;;;;;;;535.83;495.98;;;;;;;14.08;63.49;97198.94;5082882;28;20047;-60
2021/05/13 09:04:57;;;;;;;537.83;496.67;;;;;;;14.07;64.23;97205.00;5080744;28;20309;-60
2021/05/13 09:07:27;;;;;;;535.90;496.52;;;;;;;14.04;63.37;97195.72;5086445;28;20381;-60
2021/05/13 09:09:55;;;;;;;536.92;494.75;;;;;;;14.01;63.43;97210.50;5083356;28;20044;-60
2021/05/13 09:12:22;;;;;;;507.55;467.52;;;;;;;13.96;63.22;97204.78;5082464;28;20032;-61
2021/05/13 09:14:59;;;;;;;559.58;516.85;;;;;;;14.04;63.73;97226.63;5082656;28;20067;-60
2021/05/13 09:17:26;;;;;;;551.70;509.17;;;;;;;13.98;63.85;97213.25;5082003;28;20059;-60
2021/05/13 09:19:52;;;;;;;542.92;502.20;;;;;;;13.81;63.83;97214.16;5081290;28;20090;-60
2021/05/13 09:22:24;;;;;;;522.25;481.73;;;;;;;13.88;64.67;97220.63;5081872;28;20285;-61
2021/05/13 09:24:52;;;;;;;513.80;473.45;;;;;;;13.89;64.02;97227.47;5081361;28;20622;-61
2021/05/13 09:27:19;;;;;;;507.67;468.15;;;;;;;13.90;64.22;97208.53;5080936;28;20390;-62
2021/05/13 09:29:46;;;;;;;511.65;472.65;;;;;;;13.92;63.70;97205.88;5084178;28;20122;-61
2021/05/13 09:32:20;;;;;;;532.67;492.70;;;;;;;13.93;63.96;97212.66;5078754;28;20032;-61
2021/05/13 09:34:46;;;;;;;548.25;507.23;;;;;;;13.94;64.02;97217.75;5081721;28;20058;-61
2021/05/13 09:37:12;;;;;;;528.25;486.80;;;;;;;14.15;64.36;97211.41;5086475;28;20046;-61
2021/05/13 09:39:45;;;;;;;554.25;513.05;;;;;;;14.32;62.63;97212.19;5081540;28;20079;-61
2021/05/13 09:42:11;;;;;;;517.10;478.75;;;;;;;14.24;62.74;97207.47;5081513;28;20412;-62
2021/05/13 09:44:39;;;;;;;547.22;506.88;;;;;;;13.93;62.89;97218.66;5082582;28;20258;-62
2021/05/13 09:47:26;;;;;;;533.17;493.08;;;;;;;14.13;62.82;97213.22;5081647;28;20092;-64
2021/05/13 09:50:10;;;;;;;523.13;483.27;;;;;;;14.00;62.61;97201.13;5082697;28;20054;-65
2021/05/13 09:52:50;;;;;;;520.00;479.67;;;;;;;14.19;62.35;97199.16;5082729;28;20065;-64
2021/05/13 09:55:26;;;;;;;518.00;478.15;;;;;;;14.27;60.82;97214.19;5082536;28;20024;-64
2021/05/13 09:58:13;;;;;;;516.33;476.30;;;;;;;14.02;62.07;97197.53;5081112;28;20082;-64
2021/05/13 10:00:49;;;;;;;503.30;463.33;;;;;;;14.07;62.45;97212.75;5082210;28;20097;-64
2021/05/13 10:03:18;;;;;;;522.65;481.42;;;;;;;14.14;61.57;97206.31;5084913;28;20350;-64
2021/05/13 10:05:50;;;;;;;517.75;476.45;;;;;;;14.30;61.72;97214.03;5083916;28;20035;-63
2021/05/13 10:08:17;;;;;;;520.63;479.60;;;;;;;14.29;60.76;97220.94;5082364;28;20079;-64
2021/05/13 10:10:43;;;;;;;538.78;497.13;;;;;;;14.51;60.85;97234.28;5084005;28;20031;-63
2021/05/13 10:13:10;;;;;;;539.35;497.42;;;;;;;14.47;61.57;97227.66;5083038;28;20039;-62
2021/05/13 10:15:40;;;;;;;533.05;491.52;;;;;;;14.37;61.54;97229.09;5081106;28;20265;-64
2021/05/13 10:18:19;;;;;;;549.08;508.33;;;;;;;14.41;61.29;97235.75;5080644;28;20042;-64
2021/05/13 10:20:50;;;;;;;551.00;510.40;;;;;;;14.41;61.84;97228.00;5081943;28;20035;-64
2021/05/13 10:23:16;;;;;;;535.70;493.70;;;;;;;14.36;61.44;97229.19;5081691;28;20028;-64
2021/05/13 10:25:42;;;;;;;551.38;508.25;;;;;;;14.26;60.85;97239.13;5083802;28;20033;-62
2021/05/13 10:28:12;;;;;;;536.33;492.55;;;;;;;14.15;60.26;97251.81;5084558;28;20043;-62
2021/05/13 10:30:38;;;;;;;529.35;485.27;;;;;;;14.15;60.16;97238.91;5086257;28;20080;-64
2021/05/13 10:33:07;;;;;;;539.42;495.95;;;;;;;14.37;60.20;97252.31;5082921;28;20035;-63
2021/05/13 10:35:33;;;;;;;544.55;501.52;;;;;;;14.31;60.97;97249.19;5087514;28;20040;-62
2021/05/13 10:38:04;;;;;;;534.55;491.98;;;;;;;14.36;60.00;97240.31;5089771;28;20360;-62
2021/05/13 10:43:34;;;;;;;550.03;505.40;;;;;;;14.35;59.94;97246.38;5077102;28;20058;-63
2021/05/13 10:46:01;;;;;;;540.80;496.98;;;;;;;14.22;59.27;97247.97;5084287;28;20028;-62
2021/05/13 10:48:39;;;;;;;545.03;501.65;;;;;;;14.22;59.66;97255.69;5085495;28;20032;-62
2021/05/13 10:51:07;;;;;;;542.03;497.80;;;;;;;14.14;60.18;97257.88;5087543;28;20123;-62
2021/05/13 10:56:16;;;;;;;534.73;479.43;;;;;;;14.32;61.17;97254.28;5088005;28;20064;-64
2021/05/13 10:59:09;;;;;;;516.15;473.65;;;;;;;14.39;59.37;97241.88;5087511;28;20059;-63
2021/05/13 11:01:52;;;;;;;524.47;470.45;;;;;;;14.36;60.20;97254.97;5087804;28;20111;-62
2021/05/13 11:04:21;;;;;;;525.90;471.07;;;;;;;14.54;60.43;97259.09;5087321;28;20040;-63
2021/05/13 11:06:51;;;;;;;531.83;476.83;;;;;;;14.35;60.54;97255.84;5086904;28;20119;-64
2021/05/13 11:09:48;;;;;;;535.47;480.90;;;;;;;14.47;60.97;97252.63;5087021;28;20372;-61
2021/05/13 11:12:20;;;;;;;542.93;487.47;;;;;;;14.34;61.67;97278.22;5086892;28;20043;-61
2021/05/13 11:15:08;;;;;;;529.20;475.67;;;;;;;14.01;61.66;97264.59;5086641;28;20032;-64